CYSB

Greater Sudbury Airport

Airport
ICAO code
CYSB
IATA Code
YSB
Summary
ICAO Region
NAM
ICAO Territory
Location

Sudbury, Ontario,

Serving
Sudbury
Elevation
1141 ft
Coordinates
46° 37' 30" N , 80° 47' 56" W
KCC
Airport BS
Bird Strike
Airport CFIT
Altimeter Temperature Error Correction
Airport GND
Aircraft Ground De/Anti Icing
Airport RE
Landing on Contaminated Runways
Metar
CYSB 272100Z 34011G18KT 20SM FEW015 BKN027 15/13 A2945 RMK SC2SC6 SLP976 DENSITY ALT 2000FT

Description

Regional airport located 11 miles northeast of Sudbury, Ontario, Canada.

Climatology

Humid Continental climate (Köppen climate classification Dfb) - Variable weather patterns and a large seasonal temperature variance. Summers are often warm and humid with frequent thunderstorms and winters can be very cold with frequent snowfall and persistent snow cover.

Runways

Designator Length Width Surface Rops
12/30 1524 46 ASP Yes/Yes
4/22 2012 61 ASP Yes/Yes

Airport map

Aerial View

SKYbrary Partners:

Safety knowledge contributed by: